»·PEaware :: N351BL KAEG-KSEZ

N351BL :: KAEG-KSEZ

FLIGHT INFORMATION

Flight Status: Arrived
Operator: Privately registered:
United States
More flights under this callsign
Pilot: Brett L. (10300)
Aircraft: BEECH AIRCRAFT SUPER KING AIR 350
(B350)
More flights by this aircraft type
Origin: KAEG Double Eagle Ii
United States
Destination: KSEZ Sedona
United States
More flights between these airports :: More routes between these airports
Route: ABQ J6 ZUN KEYKE
File this flight plan on PilotEdge
Remarks: / / ForeFlight OnBoard / / FSEconomy
Altitude:
(Current/Filed)
24,000ft
Speed:
(Current/Filed)
300kts
Departed: 06-Dec-17 09:34 PM
Arrived: 06-Dec-17 10:32 PM
Distance/Time
Traveled:
246nm/0:58
Distance/Time
To Go:
Arrived

Flight Plot

Page will automatically refresh every two minutes.

Flight plan parsing failed; only flown route is shown


Map Options




Map Legend


Flown Route
Filed Route
Departure Airport
Arrival Airport
Navaid (VOR, NDB)
Fix

Horizontal Profiles

Position Reports

Time Latitude Longitude Heading Altitude Ground
Speed
06-Dec-17 21:28 35.159361 -106.792225 270 5842ft 0kts
06-Dec-17 21:29 35.159361 -106.792225 270 5842ft 0kts
06-Dec-17 21:30 35.159361 -106.792225 270 5842ft 0kts
06-Dec-17 21:31 35.159361 -106.792225 270 5842ft 0kts
06-Dec-17 21:32 35.159361 -106.792227 269 5842ft 0kts
06-Dec-17 21:33 35.159361 -106.792230 269 5842ft 0kts
06-Dec-17 21:34 35.159249 -106.791159 159 5842ft 10kts
06-Dec-17 21:35 35.156939 -106.791153 229 5842ft 1kts
06-Dec-17 21:36 35.153157 -106.790048 178 5842ft 16kts
06-Dec-17 21:37 35.152302 -106.788887 181 5842ft 0kts
06-Dec-17 21:38 35.152163 -106.788908 181 5842ft 1kts
06-Dec-17 21:39 35.121158 -106.792426 191 7000ft 173kts
06-Dec-17 21:40 35.073351 -106.809507 191 9883ft 184kts
06-Dec-17 21:41 35.039602 -106.846360 273 12468ft 175kts
06-Dec-17 21:42 35.040753 -106.905865 272 14799ft 184kts
06-Dec-17 21:43 35.039561 -106.978411 270 16108ft 225kts
06-Dec-17 21:44 35.037780 -107.049500 270 19110ft 187kts
06-Dec-17 21:45 35.036271 -107.108292 268 22222ft 166kts
06-Dec-17 21:46 35.034795 -107.165703 267 24224ft 192kts
06-Dec-17 21:47 35.032787 -107.241805 267 24376ft 250kts
06-Dec-17 21:48 35.030369 -107.330983 267 24372ft 270kts
06-Dec-17 21:49 35.027766 -107.423840 267 24371ft 276kts
06-Dec-17 21:50 35.025027 -107.518097 267 24370ft 278kts
06-Dec-17 21:51 35.022215 -107.612383 267 24369ft 278kts
06-Dec-17 21:52 35.019318 -107.706729 267 24373ft 278kts
06-Dec-17 21:53 35.016341 -107.801391 267 24378ft 279kts
06-Dec-17 21:54 35.013295 -107.895970 267 24378ft 279kts
06-Dec-17 21:55 35.010166 -107.990683 267 24378ft 279kts
06-Dec-17 21:56 35.006946 -108.085880 268 24378ft 281kts
06-Dec-17 21:57 35.003644 -108.181226 268 24376ft 282kts
06-Dec-17 21:58 35.000254 -108.277003 268 24375ft 282kts
06-Dec-17 21:59 34.996806 -108.372517 268 24374ft 282kts
06-Dec-17 22:00 34.993276 -108.468089 268 24373ft 283kts
06-Dec-17 22:01 34.989647 -108.564195 268 24371ft 283kts
06-Dec-17 22:02 34.985961 -108.659998 268 24370ft 283kts
06-Dec-17 22:03 34.982186 -108.755862 268 24368ft 284kts
06-Dec-17 22:04 34.978324 -108.852285 268 24364ft 284kts
06-Dec-17 22:05 34.974390 -108.948573 268 24363ft 284kts
06-Dec-17 22:07 34.970370 -109.045152 268 24363ft 285kts
06-Dec-17 22:08 34.966802 -109.141644 270 24367ft 285kts
06-Dec-17 22:09 34.966113 -109.238266 270 24368ft 285kts
06-Dec-17 22:10 34.966012 -109.335276 271 24366ft 286kts
06-Dec-17 22:11 34.965972 -109.432196 271 24370ft 286kts
06-Dec-17 22:12 34.965901 -109.529200 271 24373ft 286kts
06-Dec-17 22:13 34.965739 -109.626716 272 24386ft 288kts
06-Dec-17 22:14 34.965522 -109.724672 272 24393ft 290kts
06-Dec-17 22:15 34.965228 -109.823363 272 24398ft 290kts
06-Dec-17 22:16 34.964854 -109.921925 272 24402ft 291kts
06-Dec-17 22:16 34.964483 -110.004073 272 24408ft 291kts
06-Dec-17 22:18 34.963857 -110.120458 273 24420ft 295kts
06-Dec-17 22:18 34.963343 -110.204009 273 24426ft 296kts
06-Dec-17 22:19 34.962637 -110.304572 273 24433ft 297kts
06-Dec-17 22:21 34.961706 -110.422441 273 24442ft 298kts
06-Dec-17 22:21 34.960975 -110.506671 273 24448ft 299kts
06-Dec-17 22:23 34.959845 -110.625263 273 24455ft 300kts
06-Dec-17 22:23 34.959024 -110.712385 273 23400ft 321kts
06-Dec-17 22:24 34.957829 -110.823292 273 21605ft 331kts
06-Dec-17 22:25 34.956359 -110.935500 273 19727ft 330kts
06-Dec-17 22:26 34.954871 -111.047774 274 17731ft 332kts
06-Dec-17 22:27 34.953195 -111.160774 273 15727ft 332kts
06-Dec-17 22:28 34.951536 -111.269709 274 15008ft 308kts
06-Dec-17 22:29 34.941375 -111.377283 264 13183ft 328kts
06-Dec-17 22:30 34.924686 -111.483390 264 10677ft 305kts
06-Dec-17 22:31 34.892314 -111.568633 223 10005ft 277kts
06-Dec-17 22:32 34.836133 -111.629459 238 9999ft 270kts
06-Dec-17 22:33 34.807158 -111.710754 265 8808ft 221kts
06-Dec-17 22:34 34.796450 -111.783818 265 7179ft 236kts
06-Dec-17 22:35 34.815551 -111.827142 21 5464ft 143kts
06-Dec-17 22:36 34.841225 -111.797559 45 4867ft 93kts
06-Dec-17 22:37 34.850581 -111.786537 312 4746ft 0kts

Navigation Log

Ident Type
Flight plan parsing failed, navigation log unavailable